createdAt,value
2019-05-11T00:01:36.384Z,63.82
2019-05-11T00:04:07.815Z,64.06
2019-05-11T00:06:39.889Z,64.04
2019-05-11T00:09:09.350Z,64.11
2019-05-11T00:11:39.753Z,65.78
2019-05-11T00:14:09.325Z,66.40
2019-05-11T00:16:39.723Z,67.17
2019-05-11T00:19:10.026Z,64.67
2019-05-11T00:21:39.608Z,65.12
2019-05-11T00:24:10.103Z,65.75
2019-05-11T00:26:42.077Z,65.73
2019-05-11T00:29:11.550Z,65.48
2019-05-11T00:31:42.052Z,66.08
2019-05-11T00:34:11.520Z,66.57
2019-05-11T00:36:42.027Z,66.82
2019-05-11T00:39:11.502Z,67.17
2019-05-11T00:41:41.915Z,66.75
2019-05-11T00:44:13.871Z,66.43
2019-05-11T00:46:44.277Z,66.58
2019-05-11T00:49:13.845Z,66.20
2019-05-11T00:51:43.215Z,66.28
2019-05-11T00:54:12.049Z,65.75
2019-05-11T00:56:44.435Z,66.01
2019-05-11T00:59:21.840Z,66.67
2019-05-11T01:01:46.140Z,66.59
2019-05-11T01:04:18.287Z,66.69
2019-05-11T01:06:47.813Z,66.39
2019-05-11T01:09:21.810Z,66.39
2019-05-11T01:11:54.007Z,66.38
2019-05-11T01:14:24.385Z,66.16
2019-05-11T01:16:55.313Z,66.48
2019-05-11T01:19:25.605Z,66.32
2019-05-11T01:21:57.474Z,66.17
2019-05-11T01:24:27.774Z,66.23
2019-05-11T01:26:57.148Z,66.28
2019-05-11T01:29:28.397Z,66.59
2019-05-11T01:31:59.056Z,66.74
2019-05-11T01:34:31.841Z,66.97
2019-05-11T01:37:01.275Z,67.10
2019-05-11T01:39:33.238Z,66.78
2019-05-11T01:42:03.643Z,66.56
2019-05-11T01:44:32.454Z,66.70
2019-05-11T01:47:02.784Z,66.94
2019-05-11T01:49:33.507Z,66.86
2019-05-11T01:52:07.144Z,67.14
2019-05-11T01:54:37.770Z,67.00
2019-05-11T01:57:07.249Z,66.21
2019-05-11T01:59:37.631Z,66.18
2019-05-11T02:02:07.934Z,66.14
2019-05-11T02:04:37.403Z,65.97
2019-05-11T02:07:08.012Z,66.42
2019-05-11T02:09:38.445Z,66.76
2019-05-11T02:12:11.599Z,66.92
2019-05-11T02:14:42.176Z,67.01
2019-05-11T02:17:12.684Z,66.96
2019-05-11T02:19:42.251Z,67.41
2019-05-11T02:22:12.536Z,67.39
2019-05-11T02:24:42.940Z,67.64
2019-05-11T02:27:11.716Z,67.66
2019-05-11T02:29:41.776Z,67.77
2019-05-11T02:32:11.129Z,68.32
2019-05-11T02:34:43.520Z,68.08
2019-05-11T02:37:13.931Z,68.89
2019-05-11T02:39:43.297Z,69.73
2019-05-11T02:42:12.689Z,69.53
2019-05-11T02:44:43.809Z,69.92
2019-05-11T02:47:13.152Z,69.84
2019-05-11T02:49:42.442Z,69.55
2019-05-11T02:52:13.232Z,70.30
2019-05-11T02:54:47.046Z,72.90
2019-05-11T02:57:17.377Z,73.01
2019-05-11T02:59:48.137Z,73.14
2019-05-11T03:02:18.501Z,72.93
2019-05-11T03:04:49.905Z,73.44
2019-05-11T03:07:19.358Z,73.79
2019-05-11T03:09:49.943Z,73.90
2019-05-11T03:12:19.334Z,73.12
2019-05-11T03:14:51.676Z,72.84
2019-05-11T03:17:26.791Z,72.67
2019-05-11T03:19:59.176Z,72.06
2019-05-11T03:22:28.581Z,72.30
2019-05-11T03:24:59.058Z,72.37
2019-05-11T03:27:29.457Z,72.50
2019-05-11T03:30:00.925Z,72.50
2019-05-11T03:32:31.941Z,72.40
2019-05-11T03:35:00.670Z,72.78
2019-05-11T03:37:32.597Z,72.60
2019-05-11T03:40:01.918Z,72.50
2019-05-11T03:42:33.561Z,72.16
2019-05-11T03:45:02.924Z,71.88
2019-05-11T03:47:33.431Z,72.15
2019-05-11T03:50:02.851Z,72.49
2019-05-11T03:52:32.252Z,73.34
2019-05-11T03:55:01.565Z,73.33
2019-05-11T03:57:33.901Z,73.38
2019-05-11T04:00:04.209Z,72.89
2019-05-11T04:02:36.703Z,73.42
2019-05-11T04:05:06.893Z,73.57
2019-05-11T04:07:36.308Z,74.01
2019-05-11T04:10:08.857Z,74.25
2019-05-11T04:12:38.265Z,72.97
2019-05-11T04:15:09.150Z,72.99
2019-05-11T04:17:39.690Z,73.63
2019-05-11T04:20:11.102Z,73.29
2019-05-11T04:22:40.572Z,73.93
2019-05-11T04:25:10.607Z,73.94
2019-05-11T04:27:42.007Z,74.19
2019-05-11T04:30:11.692Z,74.74
2019-05-11T04:32:41.260Z,74.52
2019-05-11T04:35:11.865Z,73.57
2019-05-11T04:37:41.238Z,71.89
2019-05-11T04:40:11.943Z,70.33
2019-05-11T04:42:54.463Z,65.28
2019-05-11T04:45:13.732Z,66.17
2019-05-11T04:47:43.069Z,68.77
2019-05-11T04:50:12.680Z,69.04
2019-05-11T04:52:41.341Z,69.25
2019-05-11T04:55:10.200Z,70.74
2019-05-11T04:57:39.614Z,71.28
2019-05-11T05:00:10.549Z,71.53
2019-05-11T05:02:40.904Z,71.86
2019-05-11T05:05:11.403Z,73.05
2019-05-11T05:07:48.121Z,73.08
2019-05-11T05:10:20.060Z,73.68
2019-05-11T05:12:50.813Z,74.42
2019-05-11T05:15:17.729Z,74.56
2019-05-11T05:17:48.047Z,74.76
2019-05-11T05:20:20.625Z,74.98
2019-05-11T05:22:51.031Z,75.38
2019-05-11T05:25:20.547Z,77.38
2019-05-11T05:27:50.903Z,77.50
2019-05-11T05:30:21.625Z,76.61
2019-05-11T05:32:51.348Z,76.45
2019-05-11T05:35:20.802Z,77.32
2019-05-11T05:37:51.175Z,77.94
2019-05-11T05:40:21.697Z,80.62
2019-05-11T05:42:52.086Z,77.87
2019-05-11T05:45:22.704Z,79.33
2019-05-11T05:47:53.211Z,79.81
2019-05-11T05:50:23.717Z,80.61
2019-05-11T05:52:54.027Z,80.00
2019-05-11T05:55:23.434Z,80.28
2019-05-11T05:57:53.799Z,80.31
2019-05-11T06:00:23.292Z,79.92
2019-05-11T06:02:52.666Z,80.22
2019-05-11T06:05:22.015Z,80.00
2019-05-11T06:07:52.434Z,80.16
2019-05-11T06:10:23.474Z,78.29
2019-05-11T06:12:53.827Z,76.27
2019-05-11T06:15:23.242Z,76.13
2019-05-11T06:17:54.942Z,76.46
2019-05-11T06:20:25.268Z,77.72
2019-05-11T06:22:55.662Z,77.12
2019-05-11T06:25:25.064Z,76.71
2019-05-11T06:27:55.414Z,78.23
2019-05-11T06:30:24.881Z,79.29
2019-05-11T06:32:55.288Z,79.70
2019-05-11T06:35:24.690Z,80.99
2019-05-11T06:37:55.214Z,80.72
2019-05-11T06:40:28.208Z,80.81
2019-05-11T06:42:55.139Z,80.35
2019-05-11T06:45:29.610Z,80.12
2019-05-11T06:47:59.013Z,80.70
2019-05-11T06:50:32.720Z,80.26
2019-05-11T06:53:02.129Z,79.62
2019-05-11T06:55:32.796Z,80.24
2019-05-11T06:58:02.211Z,79.37
2019-05-11T07:00:34.029Z,79.17
2019-05-11T07:03:04.540Z,77.39
2019-05-11T07:05:35.076Z,77.24
2019-05-11T07:08:05.452Z,71.82
2019-05-11T07:10:34.925Z,65.17
2019-05-11T07:13:06.680Z,50.68
2019-05-11T07:15:36.090Z,57.76
2019-05-11T07:18:06.658Z,64.61
2019-05-11T07:20:49.534Z,65.83
2019-05-11T07:23:08.414Z,56.06
2019-05-11T07:25:37.783Z,55.75
2019-05-11T07:28:08.278Z,62.93
2019-05-11T07:30:38.684Z,63.88
2019-05-11T07:33:10.658Z,64.92
2019-05-11T07:35:40.077Z,65.12
2019-05-11T07:38:10.858Z,64.50
2019-05-11T07:40:40.250Z,66.03
2019-05-11T07:43:11.979Z,67.30
2019-05-11T07:45:43.895Z,69.00
2019-05-11T07:48:14.378Z,70.61
2019-05-11T07:50:43.026Z,71.23
2019-05-11T07:53:11.537Z,68.76
2019-05-11T07:55:40.010Z,65.21
2019-05-11T07:58:10.444Z,59.84
2019-05-11T08:00:41.044Z,54.92
2019-05-11T08:03:10.452Z,53.32
2019-05-11T08:05:39.771Z,58.15
2019-05-11T08:08:10.172Z,58.29
2019-05-11T08:10:39.639Z,58.97
2019-05-11T08:13:09.299Z,60.14
2019-05-11T08:15:39.182Z,58.46
2019-05-11T08:18:09.832Z,54.22
2019-05-11T08:20:42.383Z,54.27
2019-05-11T08:23:14.799Z,53.96
2019-05-11T08:25:45.228Z,49.12
2019-05-11T08:28:18.151Z,50.00
2019-05-11T08:30:48.758Z,51.75
2019-05-11T08:33:21.329Z,52.31
2019-05-11T08:35:53.718Z,54.93
2019-05-11T08:38:23.346Z,54.98
2019-05-11T08:40:53.811Z,46.82
2019-05-11T08:43:28.527Z,35.41
2019-05-11T08:45:57.926Z,22.15
2019-05-11T08:48:30.446Z,18.87
2019-05-11T08:51:00.850Z,21.63
2019-05-11T08:53:31.260Z,20.73
2019-05-11T08:56:05.530Z,19.40
2019-05-11T08:58:34.827Z,20.67
2019-05-11T09:01:05.294Z,19.79
2019-05-11T09:03:38.853Z,18.73
2019-05-11T09:06:09.125Z,16.59
2019-05-11T09:08:39.447Z,14.48
2019-05-11T09:11:11.514Z,20.78
2019-05-11T09:13:42.026Z,27.12
2019-05-11T09:16:15.652Z,21.78
2019-05-11T09:18:43.468Z,24.69
2019-05-11T09:21:12.948Z,30.80
2019-05-11T09:23:42.291Z,34.69
2019-05-11T09:26:12.815Z,36.21
2019-05-11T09:28:43.203Z,37.52
2019-05-11T09:31:13.610Z,39.36
2019-05-11T09:33:48.218Z,41.58
2019-05-11T09:36:18.633Z,44.11
2019-05-11T09:38:49.036Z,44.06
2019-05-11T09:41:19.929Z,44.56
2019-05-11T09:43:50.243Z,43.66
2019-05-11T09:46:19.704Z,43.06
2019-05-11T09:48:50.338Z,42.29
2019-05-11T09:51:19.780Z,40.26
2019-05-11T09:53:49.184Z,30.87
2019-05-11T09:56:21.214Z,27.81
2019-05-11T09:58:51.639Z,29.86
2019-05-11T10:01:21.024Z,28.09
2019-05-11T10:03:51.706Z,33.73
2019-05-11T10:06:22.213Z,38.60
2019-05-11T10:08:54.603Z,40.36
2019-05-11T10:11:24.225Z,42.23
2019-05-11T10:13:54.579Z,43.34
2019-05-11T10:16:24.985Z,45.26
2019-05-11T10:18:55.388Z,46.34
2019-05-11T10:21:24.787Z,46.92
2019-05-11T10:23:54.154Z,46.67
2019-05-11T10:26:23.596Z,44.41
2019-05-11T10:28:53.983Z,41.89
2019-05-11T10:31:24.306Z,41.17
2019-05-11T10:33:54.896Z,41.02
2019-05-11T10:36:25.314Z,41.68
2019-05-11T10:38:58.633Z,40.30
2019-05-11T10:41:28.642Z,38.09
2019-05-11T10:43:59.187Z,36.92
2019-05-11T10:46:29.953Z,35.44
2019-05-11T10:49:00.254Z,38.69
2019-05-11T10:51:30.869Z,43.10
2019-05-11T10:54:04.199Z,44.33
2019-05-11T10:56:33.674Z,40.38
2019-05-11T10:59:04.074Z,37.54
2019-05-11T11:01:38.106Z,36.01
2019-05-11T11:04:08.048Z,34.51
2019-05-11T11:06:38.917Z,35.15
2019-05-11T11:09:10.232Z,34.90
2019-05-11T11:11:40.797Z,36.86
2019-05-11T11:14:12.575Z,36.63
2019-05-11T11:16:42.956Z,39.15
2019-05-11T11:19:13.716Z,43.09
2019-05-11T11:21:44.097Z,42.15
2019-05-11T11:24:14.601Z,40.15
2019-05-11T11:26:45.219Z,41.62
2019-05-11T11:29:17.974Z,42.30
2019-05-11T11:31:48.557Z,41.30
2019-05-11T11:34:18.808Z,43.09
2019-05-11T11:36:49.449Z,45.14
2019-05-11T11:39:18.874Z,44.05
2019-05-11T11:41:49.216Z,44.05
2019-05-11T11:44:19.725Z,43.09
2019-05-11T11:46:54.995Z,43.09
2019-05-11T11:49:21.388Z,42.94
2019-05-11T11:51:51.882Z,40.93
2019-05-11T11:54:24.586Z,40.34
2019-05-11T11:56:55.409Z,40.34
2019-05-11T11:59:28.703Z,39.18
2019-05-11T12:01:59.373Z,40.40
2019-05-11T12:04:29.716Z,42.90
2019-05-11T12:06:59.377Z,44.18
2019-05-11T12:09:28.675Z,43.29
2019-05-11T12:11:58.488Z,42.54
2019-05-11T12:14:31.219Z,42.66
2019-05-11T12:17:07.477Z,42.66
2019-05-11T12:19:32.717Z,41.65
2019-05-11T12:22:04.186Z,41.46
2019-05-11T12:24:34.964Z,41.32
2019-05-11T12:27:07.547Z,40.97
2019-05-11T12:29:38.562Z,40.98
2019-05-11T12:32:08.840Z,40.77
2019-05-11T12:34:39.223Z,41.63
2019-05-11T12:37:09.065Z,41.89
2019-05-11T12:39:39.514Z,41.72
2019-05-11T12:42:10.756Z,43.61
2019-05-11T12:44:41.473Z,43.99
2019-05-11T12:47:22.075Z,43.99
2019-05-11T12:49:44.948Z,44.44
2019-05-11T12:52:19.060Z,42.71
2019-05-11T12:54:53.335Z,42.75
2019-05-11T12:57:28.014Z,45.83
2019-05-11T12:59:58.340Z,45.83
2019-05-11T13:02:28.094Z,50.29
2019-05-11T13:04:58.455Z,51.51
2019-05-11T13:07:29.013Z,52.17
2019-05-11T13:10:05.581Z,51.84
2019-05-11T13:12:38.646Z,56.57
2019-05-11T13:15:08.978Z,65.00
2019-05-11T13:17:40.830Z,64.73
2019-05-11T13:20:12.654Z,67.64
2019-05-11T13:22:44.218Z,71.44
2019-05-11T13:25:15.120Z,72.05
2019-05-11T13:27:46.263Z,69.74
2019-05-11T13:30:18.361Z,76.81
2019-05-11T13:32:49.223Z,76.87
2019-05-11T13:35:18.694Z,74.95
2019-05-11T13:37:48.180Z,78.09
2019-05-11T13:40:18.676Z,77.01
2019-05-11T13:42:49.322Z,75.45
2019-05-11T13:45:19.927Z,76.15
2019-05-11T13:47:55.644Z,73.59
2019-05-11T13:50:24.922Z,68.12
2019-05-11T13:52:58.508Z,60.27
2019-05-11T13:55:28.452Z,56.96
2019-05-11T13:57:59.121Z,52.13
2019-05-11T14:00:29.724Z,52.88
2019-05-11T14:03:04.015Z,54.11
2019-05-11T14:05:33.732Z,54.34
2019-05-11T14:08:07.915Z,54.94
2019-05-11T14:10:38.463Z,55.32
2019-05-11T14:13:08.799Z,55.08
2019-05-11T14:15:39.543Z,51.26
2019-05-11T14:18:12.450Z,54.52
2019-05-11T14:20:42.930Z,54.63
2019-05-11T14:23:14.569Z,52.65
2019-05-11T14:25:45.121Z,51.74
2019-05-11T14:28:17.946Z,53.90
2019-05-11T14:30:49.895Z,56.14
2019-05-11T14:33:22.617Z,58.79
2019-05-11T14:35:53.141Z,59.29
2019-05-11T14:38:24.459Z,61.80
2019-05-11T14:40:54.962Z,65.86
2019-05-11T14:43:25.199Z,66.44
2019-05-11T14:45:57.837Z,67.58
2019-05-11T14:48:30.225Z,70.26
2019-05-11T14:51:01.395Z,69.35
2019-05-11T14:53:33.599Z,70.52
2019-05-11T14:56:05.057Z,70.69
2019-05-11T14:58:38.415Z,70.73
2019-05-11T15:01:08.797Z,71.21
2019-05-11T15:03:38.492Z,72.28
2019-05-11T15:06:10.997Z,71.84
2019-05-11T15:08:41.447Z,71.29
2019-05-11T15:43:48.058Z,100.00
